Terminal Aerodrome Forecast
Issued by NWS Charleston, WV

Current Version | Previous Version | Graphics & Text | Print | Product List | Glossary On
Versions: 1 2 3 4 5 6 7 8 9 10 11 12 13 14 15 16 17 18 19 20 21 22 23 24 25
865
FTUS41 KRLX 152323
TAFHTS
TAF
KHTS 152323Z 1600/1624 30004KT P6SM FEW250
     FM160500 00000KT 3SM BR FEW045
     FM160600 00000KT 1 1/2SM BR FEW250
     FM160700 00000KT 1/2SM FG OVC001
     FM161230 00000KT 4SM BR SCT002
     FM161300 00000KT P6SM FEW035
     FM162000 00000KT P6SM SCT045=

USA.gov is the U.S. government's official web portal to all federal, state and local government web resources and services.